Time;durP1;ratioP1;P1;durP2;ratioP2;P2;SDS_P1;SDS_P2;PMS_P1;PMS_P2;Temp;Humidity;BMP_temperature;BMP_pressure;BME280_temperature;BME280_humidity;BME280_pressure;Samples;Min_cycle;Max_cycle;Signal;HPM_P1;HPM_P2
2022/05/28 00:02:23;;;;;;;13.27;2.55;;;;;;;;;;5012156;28;20029;-70
2022/05/28 00:04:48;;;;;;;15.77;2.15;;;;;;;;;;5005852;28;20030;-70
2022/05/28 00:07:13;;;;;;;10.53;2.10;;;;;;;;;;4999486;28;20386;-70
2022/05/28 00:09:38;;;;;;;6.63;1.60;;;;;;;;;;5011759;28;20326;-69
2022/05/28 00:12:04;;;;;;;12.67;2.13;;;;;;;;;;5015739;28;20575;-70
2022/05/28 00:14:29;;;;;;;20.35;1.95;;;;;;;;;;5003596;28;20280;-70
2022/05/28 00:16:54;;;;;;;16.98;2.38;;;;;;;;;;5006350;28;20482;-70
2022/05/28 00:19:19;;;;;;;9.00;1.83;;;;;;;;;;5002707;28;20371;-70
2022/05/28 00:21:44;;;;;;;15.38;2.13;;;;;;;;;;5012464;28;20297;-70
2022/05/28 00:24:11;;;;;;;16.73;3.03;;;;;;;;;;5003216;28;20026;-70
2022/05/28 00:26:37;;;;;;;14.98;3.30;;;;;;;;;;5004794;28;20018;-69
2022/05/28 00:29:02;;;;;;;13.57;2.87;;;;;;;;;;5010422;28;20022;-69
2022/05/28 00:31:27;;;;;;;13.83;2.57;;;;;;;;;;5001865;28;20824;-70
2022/05/28 00:33:52;;;;;;;13.18;2.55;;;;;;;;;;5002219;28;20352;-70
2022/05/28 00:36:17;;;;;;;18.85;2.38;;;;;;;;;;5005557;28;20398;-70
2022/05/28 00:38:43;;;;;;;17.63;2.40;;;;;;;;;;5008046;28;20064;-70
2022/05/28 00:41:09;;;;;;;16.98;2.33;;;;;;;;;;5005388;28;20068;-71
2022/05/28 00:43:37;;;;;;;11.60;1.88;;;;;;;;;;5009202;28;20030;-71
2022/05/28 00:46:06;;;;;;;12.15;3.10;;;;;;;;;;5008017;28;20418;-71
2022/05/28 00:48:34;;;;;;;8.93;2.33;;;;;;;;;;5012723;28;20037;-71
2022/05/28 00:51:03;;;;;;;12.45;2.35;;;;;;;;;;5003828;28;20264;-70
2022/05/28 00:53:29;;;;;;;11.27;2.53;;;;;;;;;;5005363;28;20105;-71
2022/05/28 00:55:54;;;;;;;22.80;3.75;;;;;;;;;;5004236;28;20305;-71
2022/05/28 00:58:19;;;;;;;22.80;3.67;;;;;;;;;;5006723;28;20474;-70
2022/05/28 01:00:44;;;;;;;18.13;3.25;;;;;;;;;;5009273;28;20338;-71
2022/05/28 01:03:17;;;;;;;14.90;3.10;;;;;;;;;;5004032;28;20434;-71
2022/05/28 01:05:50;;;;;;;19.15;3.45;;;;;;;;;;5010532;28;20038;-71
2022/05/28 01:08:16;;;;;;;15.77;2.92;;;;;;;;;;5007971;28;20091;-71
2022/05/28 01:10:41;;;;;;;14.45;3.20;;;;;;;;;;5002705;28;20021;-71
2022/05/28 01:13:06;;;;;;;11.88;3.10;;;;;;;;;;5011000;28;20026;-71
2022/05/28 01:15:33;;;;;;;17.02;3.70;;;;;;;;;;5011483;28;20389;-71
2022/05/28 01:18:11;;;;;;;16.77;3.17;;;;;;;;;;5008243;28;20029;-71
2022/05/28 01:20:41;;;;;;;14.18;3.17;;;;;;;;;;5004994;28;20425;-71
2022/05/28 01:23:07;;;;;;;;;;;;;;;;;;5010480;28;20078;-71
2022/05/28 01:25:38;;;;;;;22.10;3.67;;;;;;;;;;5004536;28;19968;-71
2022/05/28 01:28:06;;;;;;;21.05;3.10;;;;;;;;;;5005423;28;20026;-71
2022/05/28 01:30:31;;;;;;;15.85;3.03;;;;;;;;;;5003243;28;20149;-71
2022/05/28 01:32:57;;;;;;;21.17;3.53;;;;;;;;;;5010021;28;20033;-71
2022/05/28 01:35:23;;;;;;;23.50;4.90;;;;;;;;;;5006720;28;20016;-71
2022/05/28 01:37:49;;;;;;;21.25;3.67;;;;;;;;;;5009138;28;20156;-71
2022/05/28 01:40:15;;;;;;;14.57;3.05;;;;;;;;;;5005939;28;20025;-71
2022/05/28 01:42:45;;;;;;;18.15;3.70;;;;;;;;;;5010744;28;20112;-71
2022/05/28 01:45:12;;;;;;;18.20;3.97;;;;;;;;;;5014448;28;20383;-71
2022/05/28 01:47:38;;;;;;;14.43;2.90;;;;;;;;;;5011352;28;20037;-71
2022/05/28 01:50:05;;;;;;;16.75;3.67;;;;;;;;;;5010748;28;20044;-71
2022/05/28 01:52:31;;;;;;;15.70;3.03;;;;;;;;;;5010243;28;20478;-71
2022/05/28 01:54:57;;;;;;;17.02;2.85;;;;;;;;;;5007366;28;20054;-71
2022/05/28 01:57:22;;;;;;;13.90;3.30;;;;;;;;;;4995520;28;20567;-70
2022/05/28 01:59:47;;;;;;;53.10;5.47;;;;;;;;;;5004236;28;20022;-71
2022/05/28 02:02:14;;;;;;;10.30;2.65;;;;;;;;;;5006678;28;20027;-71
2022/05/28 02:04:41;;;;;;;18.30;2.95;;;;;;;;;;5009507;28;20021;-71
2022/05/28 02:07:07;;;;;;;16.40;1.95;;;;;;;;;;5001316;28;20018;-71
2022/05/28 02:09:34;;;;;;;10.48;2.03;;;;;;;;;;5006084;28;20033;-71
2022/05/28 02:12:18;;;;;;;12.77;2.28;;;;;;;;;;5006919;28;20023;-70
2022/05/28 02:15:03;;;;;;;12.05;2.22;;;;;;;;;;5010171;28;20045;-71
2022/05/28 02:17:47;;;;;;;12.10;2.25;;;;;;;;;;4999173;28;20037;-71
2022/05/28 02:20:17;;;;;;;12.98;2.38;;;;;;;;;;5007465;28;20075;-71
2022/05/28 02:22:54;;;;;;;15.33;3.07;;;;;;;;;;5003350;28;20027;-71
2022/05/28 02:25:22;;;;;;;9.65;1.85;;;;;;;;;;5004559;28;20368;-71
2022/05/28 02:27:48;;;;;;;8.43;2.13;;;;;;;;;;5009170;28;20032;-71
2022/05/28 02:30:13;;;;;;;14.13;3.03;;;;;;;;;;5005028;28;20022;-71
2022/05/28 02:32:38;;;;;;;17.35;3.25;;;;;;;;;;4996305;28;20029;-71
2022/05/28 02:35:04;;;;;;;15.00;2.30;;;;;;;;;;5004098;28;20029;-71
2022/05/28 02:37:29;;;;;;;10.20;2.58;;;;;;;;;;5014981;28;20307;-71
2022/05/28 02:39:57;;;;;;;11.57;2.33;;;;;;;;;;5010998;28;20034;-71
2022/05/28 02:42:22;;;;;;;15.85;2.55;;;;;;;;;;5006891;28;20838;-70
2022/05/28 02:44:48;;;;;;;11.88;2.13;;;;;;;;;;5001656;28;20157;-71
2022/05/28 02:47:13;;;;;;;10.20;2.28;;;;;;;;;;5006364;28;20478;-71
2022/05/28 02:49:38;;;;;;;13.37;2.80;;;;;;;;;;5009605;28;20033;-71
2022/05/28 02:52:04;;;;;;;12.27;2.75;;;;;;;;;;5009620;28;20293;-71
2022/05/28 02:54:30;;;;;;;14.57;2.95;;;;;;;;;;4999623;28;20018;-71
2022/05/28 02:56:56;;;;;;;20.38;2.78;;;;;;;;;;5005043;28;20037;-71
2022/05/28 02:59:21;;;;;;;15.82;2.35;;;;;;;;;;5010419;28;20017;-71
2022/05/28 03:01:46;;;;;;;21.45;3.15;;;;;;;;;;5010197;28;20112;-71
2022/05/28 03:04:12;;;;;;;10.38;1.95;;;;;;;;;;4999736;28;20025;-71
2022/05/28 03:06:37;;;;;;;12.75;2.05;;;;;;;;;;5008060;28;20062;-71
2022/05/28 03:09:03;;;;;;;14.77;2.35;;;;;;;;;;5010883;28;20057;-71
2022/05/28 03:11:28;;;;;;;14.23;2.28;;;;;;;;;;5005897;28;20109;-71
2022/05/28 03:13:54;;;;;;;14.50;2.10;;;;;;;;;;5004093;28;20589;-70
2022/05/28 03:16:19;;;;;;;9.80;2.70;;;;;;;;;;5004440;28;20269;-71
2022/05/28 03:18:44;;;;;;;16.85;2.85;;;;;;;;;;5008491;28;20083;-70
2022/05/28 03:21:10;;;;;;;11.00;2.73;;;;;;;;;;5006679;28;20167;-71
2022/05/28 03:23:35;;;;;;;15.70;2.92;;;;;;;;;;5010791;28;20391;-71
2022/05/28 03:26:14;;;;;;;12.23;2.47;;;;;;;;;;5013463;28;20025;-70
2022/05/28 03:28:39;;;;;;;17.45;2.95;;;;;;;;;;5008186;28;20784;-71
2022/05/28 03:31:04;;;;;;;20.48;2.72;;;;;;;;;;5002641;28;20033;-70
2022/05/28 03:33:30;;;;;;;9.60;2.65;;;;;;;;;;5011168;28;20076;-71
2022/05/28 03:35:55;;;;;;;19.27;3.37;;;;;;;;;;5009742;28;20478;-71
2022/05/28 03:38:20;;;;;;;16.13;3.00;;;;;;;;;;5006794;28;20272;-70
2022/05/28 03:40:45;;;;;;;26.50;3.57;;;;;;;;;;5003984;28;20037;-71
2022/05/28 03:43:10;;;;;;;19.70;3.90;;;;;;;;;;5009956;28;20284;-70
2022/05/28 03:45:35;;;;;;;15.38;2.97;;;;;;;;;;5007092;28;20285;-71
2022/05/28 03:48:01;;;;;;;14.70;3.17;;;;;;;;;;5009719;28;20048;-71
2022/05/28 03:50:26;;;;;;;19.20;3.20;;;;;;;;;;4998383;28;20293;-71
2022/05/28 03:52:52;;;;;;;17.45;3.42;;;;;;;;;;5008695;28;20467;-71
2022/05/28 03:55:17;;;;;;;22.13;4.10;;;;;;;;;;5014017;28;20042;-71
2022/05/28 03:57:42;;;;;;;20.30;2.78;;;;;;;;;;5004342;28;20273;-71
2022/05/28 04:00:09;;;;;;;24.05;3.25;;;;;;;;;;5006927;28;20049;-71
2022/05/28 04:02:34;;;;;;;18.83;2.45;;;;;;;;;;5004774;28;20030;-71
2022/05/28 04:04:59;;;;;;;12.20;2.80;;;;;;;;;;5007805;28;20088;-71
2022/05/28 04:07:24;;;;;;;10.70;2.57;;;;;;;;;;5011693;28;20284;-71
2022/05/28 04:09:49;;;;;;;20.50;3.33;;;;;;;;;;5006106;28;20343;-71
2022/05/28 04:12:14;;;;;;;21.67;4.47;;;;;;;;;;5003430;28;20548;-71
2022/05/28 04:14:40;;;;;;;19.08;3.50;;;;;;;;;;5007460;28;20360;-71
2022/05/28 04:17:05;;;;;;;12.65;3.33;;;;;;;;;;5010112;28;20021;-71
2022/05/28 04:19:31;;;;;;;13.95;2.85;;;;;;;;;;5001488;28;20026;-70
2022/05/28 04:21:56;;;;;;;14.90;3.22;;;;;;;;;;5008735;28;20029;-71
2022/05/28 04:24:21;;;;;;;21.10;2.92;;;;;;;;;;5009444;28;20022;-70
2022/05/28 04:26:47;;;;;;;18.70;3.67;;;;;;;;;;5007128;28;20033;-71
2022/05/28 04:29:12;;;;;;;19.50;3.72;;;;;;;;;;5008380;28;20029;-70
2022/05/28 04:31:37;;;;;;;12.02;2.53;;;;;;;;;;5008816;28;20109;-71
2022/05/28 04:34:02;;;;;;;17.88;2.92;;;;;;;;;;5012122;28;20026;-71
2022/05/28 04:36:28;;;;;;;10.60;3.00;;;;;;;;;;5007744;28;20032;-70
2022/05/28 04:38:53;;;;;;;15.55;3.63;;;;;;;;;;5008287;28;20018;-70
2022/05/28 04:41:18;;;;;;;28.40;3.55;;;;;;;;;;5008898;28;20018;-71
2022/05/28 04:43:43;;;;;;;20.00;3.33;;;;;;;;;;5002070;28;20018;-71
2022/05/28 04:46:09;;;;;;;25.50;3.80;;;;;;;;;;5008386;28;20639;-71
2022/05/28 04:48:34;;;;;;;15.27;2.83;;;;;;;;;;5003018;28;20392;-71
2022/05/28 04:50:59;;;;;;;20.10;2.97;;;;;;;;;;4998224;28;20025;-71
2022/05/28 04:53:25;;;;;;;17.00;2.75;;;;;;;;;;5005656;28;20035;-71
2022/05/28 04:55:50;;;;;;;16.02;3.67;;;;;;;;;;5010563;28;20033;-71
2022/05/28 04:58:16;;;;;;;16.55;3.53;;;;;;;;;;5005312;28;20018;-71
2022/05/28 05:00:41;;;;;;;16.42;3.58;;;;;;;;;;5010390;28;20018;-71
2022/05/28 05:03:06;;;;;;;23.00;3.83;;;;;;;;;;5010282;28;20057;-71
2022/05/28 05:05:32;;;;;;;19.45;3.50;;;;;;;;;;5006163;28;20073;-71
2022/05/28 05:07:58;;;;;;;22.25;3.15;;;;;;;;;;5001825;28;20526;-71
2022/05/28 05:10:23;;;;;;;18.95;3.50;;;;;;;;;;5001007;28;20114;-71
2022/05/28 05:12:48;;;;;;;15.80;3.60;;;;;;;;;;5008404;28;20038;-71
2022/05/28 05:15:14;;;;;;;21.13;3.72;;;;;;;;;;5008788;28;20112;-70
2022/05/28 05:17:39;;;;;;;21.20;3.10;;;;;;;;;;5006488;28;20014;-71
2022/05/28 05:20:05;;;;;;;18.63;3.25;;;;;;;;;;5003027;28;20026;-70
2022/05/28 05:22:30;;;;;;;14.63;2.90;;;;;;;;;;5004428;28;20164;-71
2022/05/28 05:24:55;;;;;;;20.57;4.00;;;;;;;;;;5005720;28;20025;-70
2022/05/28 05:27:20;;;;;;;20.33;2.60;;;;;;;;;;5010765;28;20694;-71
2022/05/28 05:29:45;;;;;;;15.00;2.78;;;;;;;;;;5008377;28;20288;-71
2022/05/28 05:32:11;;;;;;;23.75;3.95;;;;;;;;;;5009165;28;20079;-70
2022/05/28 05:34:37;;;;;;;23.25;4.03;;;;;;;;;;4994571;28;20019;-70
2022/05/28 05:37:02;;;;;;;12.80;3.08;;;;;;;;;;5005445;28;20025;-71
2022/05/28 05:39:28;;;;;;;24.13;4.75;;;;;;;;;;5010382;28;20014;-71
2022/05/28 05:41:53;;;;;;;28.10;3.75;;;;;;;;;;5005518;28;20042;-71
2022/05/28 05:44:18;;;;;;;18.50;3.63;;;;;;;;;;5008452;28;20033;-70
2022/05/28 05:46:43;;;;;;;20.90;3.73;;;;;;;;;;5001544;28;20443;-70
2022/05/28 05:49:09;;;;;;;26.45;3.63;;;;;;;;;;5007552;28;20260;-71
2022/05/28 05:51:42;;;;;;;16.88;4.97;;;;;;;;;;5008260;28;20038;-71
2022/05/28 05:54:07;;;;;;;13.52;3.35;;;;;;;;;;5006637;28;20025;-70
2022/05/28 05:56:32;;;;;;;13.80;3.15;;;;;;;;;;5004409;28;20048;-71
2022/05/28 05:58:58;;;;;;;30.00;4.25;;;;;;;;;;5002641;28;20493;-71
2022/05/28 06:01:24;;;;;;;18.48;3.00;;;;;;;;;;5003720;28;20017;-70
2022/05/28 06:03:49;;;;;;;16.83;4.53;;;;;;;;;;5005744;28;21922;-70
2022/05/28 06:06:15;;;;;;;18.58;3.30;;;;;;;;;;5006034;28;20018;-71
2022/05/28 06:08:40;;;;;;;20.88;3.20;;;;;;;;;;4998062;28;20046;-70
2022/05/28 06:11:05;;;;;;;25.77;3.87;;;;;;;;;;5007453;28;20062;-71
2022/05/28 06:13:31;;;;;;;19.63;3.40;;;;;;;;;;5003157;28;20295;-71
2022/05/28 06:15:56;;;;;;;17.10;2.95;;;;;;;;;;5007757;28;20018;-70
2022/05/28 06:18:21;;;;;;;23.67;4.60;;;;;;;;;;5008071;28;20080;-71
2022/05/28 06:20:49;;;;;;;10.30;2.78;;;;;;;;;;5006721;28;20101;-71
2022/05/28 06:23:14;;;;;;;17.02;2.70;;;;;;;;;;4995624;28;20031;-71
2022/05/28 06:25:40;;;;;;;14.52;3.83;;;;;;;;;;5006969;28;20033;-71
2022/05/28 06:28:05;;;;;;;17.37;2.63;;;;;;;;;;5006126;28;20528;-71
2022/05/28 06:30:30;;;;;;;14.05;3.55;;;;;;;;;;5003116;28;20277;-70
2022/05/28 06:32:55;;;;;;;13.45;2.80;;;;;;;;;;5007372;28;20038;-71
2022/05/28 06:35:21;;;;;;;11.67;2.90;;;;;;;;;;5007672;28;20076;-71
2022/05/28 06:37:49;;;;;;;26.33;2.90;;;;;;;;;;5000776;28;20301;-71
2022/05/28 06:40:14;;;;;;;16.08;2.78;;;;;;;;;;5001850;28;20482;-70
2022/05/28 06:42:39;;;;;;;20.27;2.78;;;;;;;;;;5000266;28;20072;-70
2022/05/28 06:45:05;;;;;;;18.30;2.88;;;;;;;;;;5007203;28;20060;-71
2022/05/28 06:47:30;;;;;;;17.23;2.20;;;;;;;;;;5005570;28;20026;-70
2022/05/28 06:52:39;;;;;;;11.52;2.08;;;;;;;;;;5005233;28;20298;-71
2022/05/28 06:55:04;;;;;;;15.90;2.70;;;;;;;;;;5004404;28;20042;-71
2022/05/28 06:57:29;;;;;;;14.32;3.13;;;;;;;;;;5012609;28;20334;-71
2022/05/28 06:59:55;;;;;;;15.48;2.78;;;;;;;;;;5015107;28;20101;-72
2022/05/28 07:02:20;;;;;;;7.67;1.97;;;;;;;;;;5010117;28;20030;-71
2022/05/28 07:04:45;;;;;;;12.30;2.28;;;;;;;;;;5016368;28;20283;-71
2022/05/28 07:07:10;;;;;;;13.73;2.63;;;;;;;;;;5006528;28;20057;-71
2022/05/28 07:09:36;;;;;;;10.63;2.50;;;;;;;;;;5013335;28;20680;-70
2022/05/28 07:12:01;;;;;;;12.17;3.70;;;;;;;;;;5011778;28;20029;-68
2022/05/28 07:14:26;;;;;;;5.90;2.42;;;;;;;;;;5017085;28;20352;-68
2022/05/28 07:16:51;;;;;;;10.87;2.37;;;;;;;;;;5017089;28;20447;-68
2022/05/28 07:19:16;;;;;;;12.03;2.57;;;;;;;;;;5011363;28;20330;-68
2022/05/28 07:21:41;;;;;;;9.03;1.90;;;;;;;;;;5007210;28;20272;-69
2022/05/28 07:24:07;;;;;;;11.23;2.45;;;;;;;;;;5012925;28;20352;-69
2022/05/28 07:26:32;;;;;;;17.50;2.15;;;;;;;;;;5016236;28;20029;-69
2022/05/28 07:28:57;;;;;;;11.50;2.35;;;;;;;;;;5008962;28;20040;-71
2022/05/28 07:31:22;;;;;;;11.57;2.33;;;;;;;;;;5014481;28;20140;-71
2022/05/28 07:33:48;;;;;;;12.43;2.08;;;;;;;;;;5012520;28;20268;-71
2022/05/28 07:36:18;;;;;;;8.40;1.92;;;;;;;;;;5013108;28;20024;-69
2022/05/28 07:38:44;;;;;;;8.55;1.70;;;;;;;;;;5006568;28;20141;-69
2022/05/28 07:41:11;;;;;;;27.93;2.77;;;;;;;;;;5014395;28;20018;-68
2022/05/28 07:43:36;;;;;;;7.75;1.40;;;;;;;;;;5007751;28;20281;-69
2022/05/28 07:46:02;;;;;;;6.80;1.27;;;;;;;;;;5013201;28;20048;-69
2022/05/28 07:48:28;;;;;;;7.00;1.58;;;;;;;;;;5013300;28;20026;-68
2022/05/28 07:50:53;;;;;;;13.23;1.80;;;;;;;;;;5010215;28;20073;-69
2022/05/28 07:53:18;;;;;;;7.93;1.30;;;;;;;;;;5011261;28;20018;-70
2022/05/28 07:55:43;;;;;;;10.20;1.48;;;;;;;;;;5014852;28;20382;-68
2022/05/28 07:58:14;;;;;;;10.23;1.80;;;;;;;;;;5013199;28;20026;-69
2022/05/28 08:00:41;;;;;;;11.85;1.98;;;;;;;;;;5014340;28;20284;-72
2022/05/28 08:03:07;;;;;;;7.07;1.42;;;;;;;;;;5013788;28;20394;-70
2022/05/28 08:05:32;;;;;;;4.63;1.50;;;;;;;;;;5006743;28;20032;-70
2022/05/28 08:07:57;;;;;;;9.07;1.88;;;;;;;;;;5011323;28;20084;-68
2022/05/28 08:10:22;;;;;;;9.80;1.63;;;;;;;;;;5011267;28;20042;-73
2022/05/28 08:12:48;;;;;;;6.60;1.27;;;;;;;;;;5001862;28;20800;-73
2022/05/28 08:15:13;;;;;;;4.85;1.13;;;;;;;;;;5004068;28;20030;-71
2022/05/28 08:17:38;;;;;;;14.73;1.90;;;;;;;;;;5011199;28;20437;-70
2022/05/28 08:20:03;;;;;;;9.13;1.50;;;;;;;;;;5003616;28;20283;-70
2022/05/28 08:25:12;;;;;;;10.65;1.40;;;;;;;;;;5007662;28;20025;-71
2022/05/28 08:27:38;;;;;;;6.63;1.37;;;;;;;;;;5008209;28;20026;-71
2022/05/28 08:30:03;;;;;;;7.97;1.30;;;;;;;;;;5003390;28;20645;-71
2022/05/28 08:32:29;;;;;;;7.72;1.35;;;;;;;;;;5009046;28;20086;-70
2022/05/28 08:34:54;;;;;;;7.90;1.63;;;;;;;;;;5012887;28;20063;-70
2022/05/28 08:37:19;;;;;;;5.72;1.20;;;;;;;;;;5000424;28;20262;-70
2022/05/28 08:39:45;;;;;;;4.82;1.00;;;;;;;;;;5003885;28;20021;-71
2022/05/28 08:42:12;;;;;;;10.15;2.05;;;;;;;;;;5005761;28;20065;-70
2022/05/28 08:44:42;;;;;;;6.43;1.10;;;;;;;;;;5006528;28;20059;-69
2022/05/28 08:47:14;;;;;;;4.10;0.77;;;;;;;;;;4997774;28;20026;-69
2022/05/28 08:49:39;;;;;;;7.68;1.48;;;;;;;;;;5010527;28;20470;-70
2022/05/28 08:52:08;;;;;;;13.48;1.85;;;;;;;;;;5005814;28;20032;-71
2022/05/28 08:54:33;;;;;;;7.35;1.08;;;;;;;;;;5000519;28;20069;-71
2022/05/28 08:57:01;;;;;;;9.50;1.98;;;;;;;;;;5007310;28;20419;-70
2022/05/28 08:59:34;;;;;;;4.22;0.88;;;;;;;;;;5003991;28;20041;-70
2022/05/28 09:01:59;;;;;;;9.32;1.45;;;;;;;;;;5005688;28;20108;-71
2022/05/28 09:04:29;;;;;;;7.07;1.80;;;;;;;;;;5002496;28;20148;-69
2022/05/28 09:06:54;;;;;;;7.05;0.95;;;;;;;;;;5009431;28;20077;-69
2022/05/28 09:09:25;;;;;;;5.72;1.17;;;;;;;;;;5003663;28;20013;-72
2022/05/28 09:11:50;;;;;;;;;;;;;;;;;;5009262;28;20022;-70
2022/05/28 09:14:18;;;;;;;6.03;0.90;;;;;;;;;;4998810;28;19917;-71
2022/05/28 09:16:44;;;;;;;7.32;1.20;;;;;;;;;;5004134;28;20501;-72
2022/05/28 09:19:13;;;;;;;6.80;1.23;;;;;;;;;;5005098;28;20021;-70
2022/05/28 09:21:39;;;;;;;5.60;1.00;;;;;;;;;;5005213;28;20059;-70
2022/05/28 09:24:05;;;;;;;5.43;0.57;;;;;;;;;;5003673;28;20394;-70
2022/05/28 09:26:46;;;;;;;6.75;0.85;;;;;;;;;;5004735;28;20038;-69
2022/05/28 09:29:21;;;;;;;5.10;0.88;;;;;;;;;;5009243;28;20102;-71
2022/05/28 09:32:06;;;;;;;5.28;1.02;;;;;;;;;;5006158;28;20507;-71
2022/05/28 09:34:51;;;;;;;7.30;1.38;;;;;;;;;;5005915;28;20053;-72
2022/05/28 09:37:23;;;;;;;7.80;0.82;;;;;;;;;;5002998;28;20080;-72
2022/05/28 09:39:59;;;;;;;6.07;0.68;;;;;;;;;;5007580;28;20032;-71
2022/05/28 09:42:28;;;;;;;6.50;0.98;;;;;;;;;;5005045;28;20033;-71
2022/05/28 09:45:11;;;;;;;4.88;0.70;;;;;;;;;;5004185;28;20104;-71
2022/05/28 09:47:47;;;;;;;5.40;0.82;;;;;;;;;;5009526;28;20034;-71
2022/05/28 09:50:17;;;;;;;4.18;1.05;;;;;;;;;;5018600;28;20101;-71
2022/05/28 09:55:26;;;;;;;6.15;1.20;;;;;;;;;;5006318;28;20028;-72
2022/05/28 09:57:53;;;;;;;2.67;0.63;;;;;;;;;;4992092;28;20026;-71
2022/05/28 10:00:19;;;;;;;5.13;1.00;;;;;;;;;;5001992;28;20017;-70
2022/05/28 10:05:41;;;;;;;8.48;1.13;;;;;;;;;;5011469;28;20041;-71
2022/05/28 10:08:10;;;;;;;4.15;0.80;;;;;;;;;;5010562;28;20036;-70
2022/05/28 10:10:37;;;;;;;7.13;1.20;;;;;;;;;;5004746;28;20491;-72
2022/05/28 10:13:10;;;;;;;5.75;0.93;;;;;;;;;;5010769;28;20030;-71
2022/05/28 10:15:46;;;;;;;6.13;1.90;;;;;;;;;;5008588;28;20018;-71
2022/05/28 10:18:13;;;;;;;1.58;0.50;;;;;;;;;;5004998;28;20017;-71
2022/05/28 10:20:38;;;;;;;4.35;0.90;;;;;;;;;;5009695;28;20030;-71
2022/05/28 10:23:11;;;;;;;5.57;0.88;;;;;;;;;;5000092;28;20036;-71
2022/05/28 10:25:41;;;;;;;9.07;1.33;;;;;;;;;;5010701;28;20116;-70
2022/05/28 10:28:07;;;;;;;3.00;0.50;;;;;;;;;;5009559;28;20406;-71
2022/05/28 10:30:37;;;;;;;5.35;0.90;;;;;;;;;;5001151;28;20478;-70
2022/05/28 10:33:05;;;;;;;3.67;0.53;;;;;;;;;;5010658;28;20080;-70
2022/05/28 10:35:31;;;;;;;9.38;1.23;;;;;;;;;;5013721;28;20049;-70
2022/05/28 10:38:11;;;;;;;7.38;0.90;;;;;;;;;;5009936;28;20419;-70
2022/05/28 10:40:53;;;;;;;6.05;0.88;;;;;;;;;;4990842;28;20029;-70
2022/05/28 10:43:30;;;;;;;7.38;0.82;;;;;;;;;;4991076;28;20026;-71
2022/05/28 10:46:14;;;;;;;4.80;0.80;;;;;;;;;;5010299;28;20025;-71
2022/05/28 10:48:42;;;;;;;4.28;1.00;;;;;;;;;;5004124;28;20026;-71
2022/05/28 10:51:11;;;;;;;7.97;1.00;;;;;;;;;;5004764;28;20414;-70
2022/05/28 10:53:49;;;;;;;5.32;0.75;;;;;;;;;;4994149;28;20022;-71
2022/05/28 10:56:14;;;;;;;6.45;1.25;;;;;;;;;;5003203;28;20497;-70
2022/05/28 10:58:40;;;;;;;5.70;0.77;;;;;;;;;;5010147;28;20026;-71
2022/05/28 11:01:11;;;;;;;5.83;1.60;;;;;;;;;;5010561;28;20429;-71
2022/05/28 11:03:55;;;;;;;4.75;1.35;;;;;;;;;;5009053;28;20276;-71
2022/05/28 11:06:26;;;;;;;4.05;0.60;;;;;;;;;;5006785;28;20014;-71
2022/05/28 11:09:14;;;;;;;4.60;1.25;;;;;;;;;;5006846;28;20112;-71
2022/05/28 11:12:02;;;;;;;5.57;1.08;;;;;;;;;;5008588;28;20546;-71
2022/05/28 11:14:29;;;;;;;5.18;1.75;;;;;;;;;;5009738;28;20343;-71
2022/05/28 11:17:03;;;;;;;6.50;0.70;;;;;;;;;;4998958;28;20015;-71
2022/05/28 11:19:41;;;;;;;3.95;0.73;;;;;;;;;;4990587;28;20022;-71
2022/05/28 11:22:28;;;;;;;6.07;1.13;;;;;;;;;;4993293;28;20624;-71
2022/05/28 11:25:08;;;;;;;5.72;1.10;;;;;;;;;;5034882;22;20050;-67
2022/05/28 11:27:33;;;;;;;;;;;;;;;;;;5010723;28;20072;-66
2022/05/28 11:30:04;;;;;;;6.22;1.13;;;;;;;;;;5010196;28;19905;-67
2022/05/28 11:32:31;;;;;;;5.75;0.90;;;;;;;;;;5008219;28;20029;-67
2022/05/28 11:35:23;;;;;;;13.75;1.92;;;;;;;;;;5008007;28;20035;-67
2022/05/28 11:37:51;;;;;;;6.50;0.88;;;;;;;;;;5007350;28;20041;-67
2022/05/28 11:40:21;;;;;;;4.90;0.93;;;;;;;;;;5010305;28;20021;-67
2022/05/28 11:42:59;;;;;;;8.63;1.00;;;;;;;;;;5010746;28;20021;-67
2022/05/28 11:45:45;;;;;;;10.48;2.17;;;;;;;;;;5013827;28;20069;-67
2022/05/28 11:48:13;;;;;;;9.40;1.13;;;;;;;;;;5010763;28;20095;-67
2022/05/28 11:53:29;;;;;;;13.20;2.22;;;;;;;;;;5010928;28;20037;-67
2022/05/28 11:55:58;;;;;;;6.25;0.90;;;;;;;;;;5008525;28;20022;-67
2022/05/28 11:58:28;;;;;;;5.68;1.00;;;;;;;;;;5002830;28;20037;-67
2022/05/28 12:00:55;;;;;;;6.15;1.20;;;;;;;;;;5009448;28;20022;-67
2022/05/28 12:03:21;;;;;;;6.50;1.60;;;;;;;;;;5011816;28;20528;-67
2022/05/28 12:05:46;;;;;;;9.40;0.85;;;;;;;;;;5011142;28;20387;-67
2022/05/28 12:08:29;;;;;;;5.10;0.97;;;;;;;;;;5011700;28;20032;-67
2022/05/28 12:10:56;;;;;;;4.95;1.15;;;;;;;;;;5010522;28;20022;-66
2022/05/28 12:13:27;;;;;;;5.05;0.85;;;;;;;;;;5012093;28;20022;-66
2022/05/28 12:16:01;;;;;;;10.25;1.13;;;;;;;;;;5011608;28;20096;-67
2022/05/28 12:18:27;;;;;;;6.82;0.88;;;;;;;;;;5006928;28;20470;-67
2022/05/28 12:20:52;;;;;;;9.93;1.65;;;;;;;;;;5008998;28;20022;-67
2022/05/28 12:23:28;;;;;;;5.78;1.10;;;;;;;;;;5011630;28;20049;-67
2022/05/28 12:25:53;;;;;;;7.78;1.10;;;;;;;;;;5008743;28;20394;-67
2022/05/28 12:28:26;;;;;;;7.60;1.15;;;;;;;;;;5007666;28;20022;-67
2022/05/28 12:30:53;;;;;;;6.25;1.02;;;;;;;;;;5012026;28;20276;-67
2022/05/28 12:33:27;;;;;;;9.77;1.77;;;;;;;;;;5011704;28;20056;-67
2022/05/28 12:36:08;;;;;;;3.28;0.90;;;;;;;;;;5012910;28;20013;-67
2022/05/28 12:38:52;;;;;;;9.65;1.33;;;;;;;;;;5009672;28;20055;-68
2022/05/28 12:41:19;;;;;;;5.40;1.00;;;;;;;;;;5011719;28;20018;-67
2022/05/28 12:43:51;;;;;;;8.57;1.30;;;;;;;;;;5010866;28;20402;-67
2022/05/28 12:46:17;;;;;;;9.32;1.13;;;;;;;;;;5010076;28;20549;-67
2022/05/28 12:48:43;;;;;;;3.45;1.15;;;;;;;;;;5009602;28;20028;-68
2022/05/28 12:51:17;;;;;;;6.32;0.90;;;;;;;;;;5011833;28;20045;-67
2022/05/28 12:53:54;;;;;;;7.10;1.42;;;;;;;;;;5010238;28;20294;-67
2022/05/28 12:56:25;;;;;;;5.18;1.35;;;;;;;;;;5009530;28;20116;-67
2022/05/28 12:58:51;;;;;;;6.70;1.00;;;;;;;;;;5011608;28;20059;-67
2022/05/28 13:01:20;;;;;;;9.82;1.02;;;;;;;;;;5012106;28;20024;-67
2022/05/28 13:03:46;;;;;;;6.15;1.65;;;;;;;;;;5009349;28;20022;-67
2022/05/28 13:06:13;;;;;;;11.00;1.63;;;;;;;;;;5007691;28;20042;-67
2022/05/28 13:08:51;;;;;;;9.27;1.60;;;;;;;;;;5011920;28;20022;-67
2022/05/28 13:11:36;;;;;;;4.63;1.00;;;;;;;;;;5008874;28;20116;-67
2022/05/28 13:14:20;;;;;;;7.60;1.27;;;;;;;;;;5005196;28;20164;-67
2022/05/28 13:16:45;;;;;;;13.55;1.30;;;;;;;;;;5007200;28;20037;-67
2022/05/28 13:19:16;;;;;;;6.13;1.40;;;;;;;;;;5007287;28;20016;-67
2022/05/28 13:21:57;;;;;;;5.82;1.00;;;;;;;;;;5008547;28;20030;-67
2022/05/28 13:24:36;;;;;;;7.22;1.35;;;;;;;;;;5008441;28;20018;-67
2022/05/28 13:27:16;;;;;;;4.38;0.80;;;;;;;;;;5007338;28;20076;-67
2022/05/28 13:29:56;;;;;;;8.10;1.45;;;;;;;;;;5006354;28;20102;-67
2022/05/28 13:32:27;;;;;;;6.75;1.30;;;;;;;;;;5011531;28;20017;-67
2022/05/28 13:35:04;;;;;;;4.53;1.02;;;;;;;;;;5006434;28;20065;-67
2022/05/28 13:37:29;;;;;;;7.20;1.05;;;;;;;;;;5007356;28;20021;-67
2022/05/28 13:39:56;;;;;;;6.97;0.90;;;;;;;;;;5009291;28;20017;-67
2022/05/28 13:42:21;;;;;;;6.43;1.30;;;;;;;;;;5010111;28;20374;-67
2022/05/28 13:44:47;;;;;;;5.40;1.60;;;;;;;;;;5008401;28;20022;-67
2022/05/28 13:47:14;;;;;;;5.80;2.38;;;;;;;;;;5006744;28;20060;-67
2022/05/28 13:49:39;;;;;;;7.82;1.83;;;;;;;;;;5009749;28;20080;-67
2022/05/28 13:52:11;;;;;;;4.28;0.98;;;;;;;;;;5009346;28;20038;-67
2022/05/28 13:54:36;;;;;;;8.15;1.00;;;;;;;;;;5010113;28;20025;-67
2022/05/28 13:57:03;;;;;;;5.37;1.20;;;;;;;;;;5007261;28;20026;-67
2022/05/28 13:59:29;;;;;;;7.10;1.08;;;;;;;;;;5008747;28;20277;-67
2022/05/28 14:01:54;;;;;;;5.65;1.50;;;;;;;;;;5009537;28;20375;-67
2022/05/28 14:04:21;;;;;;;12.05;1.27;;;;;;;;;;5006621;28;20024;-67
2022/05/28 14:06:49;;;;;;;4.95;1.30;;;;;;;;;;5005149;28;20033;-67
2022/05/28 14:09:14;;;;;;;11.75;2.05;;;;;;;;;;4997367;28;20025;-67
2022/05/28 14:11:40;;;;;;;8.43;1.55;;;;;;;;;;5007881;28;20036;-68
2022/05/28 14:14:19;;;;;;;8.98;1.67;;;;;;;;;;5010037;28;20022;-67
2022/05/28 14:16:48;;;;;;;12.63;1.30;;;;;;;;;;5008930;28;20156;-67
2022/05/28 14:19:18;;;;;;;9.65;1.42;;;;;;;;;;5008225;28;20101;-67
2022/05/28 14:21:56;;;;;;;6.80;0.80;;;;;;;;;;5007654;28;20022;-67
2022/05/28 14:24:31;;;;;;;6.57;1.25;;;;;;;;;;5010252;28;20018;-67
2022/05/28 14:27:00;;;;;;;10.85;1.40;;;;;;;;;;5004389;28;20370;-67
2022/05/28 14:29:31;;;;;;;7.38;1.30;;;;;;;;;;5008757;28;20063;-67
2022/05/28 14:31:57;;;;;;;8.38;1.25;;;;;;;;;;5004079;28;20580;-67
2022/05/28 14:34:24;;;;;;;10.20;1.63;;;;;;;;;;5008285;28;20093;-67
2022/05/28 14:36:51;;;;;;;7.40;1.45;;;;;;;;;;5008632;28;20029;-67
2022/05/28 14:39:17;;;;;;;7.07;1.40;;;;;;;;;;5007480;28;20018;-67
2022/05/28 14:42:04;;;;;;;7.97;1.48;;;;;;;;;;5007986;28;20022;-67
2022/05/28 14:44:29;;;;;;;9.48;1.95;;;;;;;;;;5008005;28;20026;-67
2022/05/28 14:46:55;;;;;;;9.07;1.60;;;;;;;;;;5007287;28;20505;-68
2022/05/28 14:49:28;;;;;;;6.50;1.40;;;;;;;;;;5009972;28;20018;-67
2022/05/28 14:52:06;;;;;;;9.85;1.02;;;;;;;;;;5003027;28;20022;-67
2022/05/28 14:54:33;;;;;;;7.45;1.33;;;;;;;;;;5009158;28;20010;-67
2022/05/28 14:56:58;;;;;;;8.57;1.35;;;;;;;;;;5005776;28;20014;-67